Time;durP1;ratioP1;P1;durP2;ratioP2;P2;SDS_P1;SDS_P2;PMS_P1;PMS_P2;Temp;Humidity;BMP_temperature;BMP_pressure;BME280_temperature;BME280_humidity;BME280_pressure;Samples;Min_cycle;Max_cycle;Signal;HPM_P1;HPM_P2
2023/04/02 00:02:20;;;;;;;8.48;7.70;;;;;;;8.36;84.85;100806.56;3608511;39;21441;-66
2023/04/02 00:05:18;;;;;;;9.13;8.27;;;;;;;8.38;85.34;100815.41;3610194;39;20103;-66
2023/04/02 00:07:52;;;;;;;8.30;7.60;;;;;;;8.28;85.29;100814.16;3608006;39;20385;-66
2023/04/02 00:10:50;;;;;;;;;;;;;;;8.34;85.31;100820.03;3609589;39;20051;-65
2023/04/02 00:13:15;;;;;;;8.50;7.70;;;;;;;8.33;85.08;100818.28;3600486;39;19931;-66
2023/04/02 00:15:50;;;;;;;8.38;7.43;;;;;;;8.31;85.19;100830.91;3609332;39;20058;-66
2023/04/02 00:18:20;;;;;;;8.55;7.85;;;;;;;8.28;85.17;100816.81;3608361;39;20042;-66
2023/04/02 00:20:54;;;;;;;8.60;7.80;;;;;;;8.02;85.61;100781.53;3610422;39;20400;-65
2023/04/02 00:23:21;;;;;;;9.52;8.63;;;;;;;8.14;85.50;100799.66;3607916;39;20298;-65
2023/04/02 00:25:47;;;;;;;9.60;8.70;;;;;;;8.32;84.83;100838.00;3610828;39;20107;-65
2023/04/02 00:28:18;;;;;;;9.05;8.18;;;;;;;8.32;85.06;100847.84;3610067;39;20050;-65
2023/04/02 00:30:58;;;;;;;9.90;8.98;;;;;;;8.28;85.72;100846.28;3610551;39;20103;-65
2023/04/02 00:33:30;;;;;;;11.25;9.70;;;;;;;8.27;84.98;100844.53;3608093;39;20055;-64
2023/04/02 00:35:56;;;;;;;10.95;9.85;;;;;;;8.25;85.70;100857.16;3608695;39;20314;-65
2023/04/02 00:38:32;;;;;;;11.20;10.10;;;;;;;8.25;85.21;100862.50;3605771;39;20066;-65
2023/04/02 00:41:03;;;;;;;11.98;10.70;;;;;;;7.93;85.43;100808.81;3608835;39;20054;-66
2023/04/02 00:43:36;;;;;;;11.48;10.13;;;;;;;8.17;85.47;100875.41;3608144;39;20061;-64
2023/04/02 00:46:15;;;;;;;11.27;10.15;;;;;;;8.14;84.79;100876.44;3610034;39;20410;-64
2023/04/02 00:49:15;;;;;;;9.93;9.02;;;;;;;8.07;84.64;100878.56;3607499;39;20410;-65
2023/04/02 00:51:55;;;;;;;10.85;9.85;;;;;;;8.03;85.25;100874.31;3599250;39;20047;-65
2023/04/02 00:54:28;;;;;;;10.35;9.35;;;;;;;7.85;84.55;100853.81;3606013;39;20062;-65
2023/04/02 00:56:57;;;;;;;9.85;8.82;;;;;;;7.94;84.41;100881.94;3611743;39;20051;-65
2023/04/02 00:59:41;;;;;;;9.15;8.23;;;;;;;8.01;84.54;100897.59;3609953;39;20382;-65
2023/04/02 01:02:18;;;;;;;9.45;8.55;;;;;;;7.97;84.74;100895.16;3611810;39;20050;-65
2023/04/02 01:05:22;;;;;;;9.85;8.60;;;;;;;7.96;84.50;100910.38;3611547;39;20474;-66
2023/04/02 01:08:15;;;;;;;11.18;9.40;;;;;;;7.81;84.35;100884.34;3607509;39;20043;-66
2023/04/02 01:11:30;;;;;;;12.05;9.52;;;;;;;7.99;84.51;100918.25;3597099;39;20120;-68
2023/04/02 01:14:16;;;;;;;;;;;;;;;7.92;84.52;100908.75;3609268;39;20382;-66
2023/04/02 01:17:02;;;;;;;10.23;9.23;;;;;;;7.98;84.94;100923.66;3608559;39;20258;-66
2023/04/02 01:19:52;;;;;;;10.13;9.18;;;;;;;7.96;84.19;100923.75;3605573;39;20047;-66
2023/04/02 01:22:18;;;;;;;11.55;9.55;;;;;;;7.99;84.94;100930.75;3606615;39;20074;-66
2023/04/02 01:24:44;;;;;;;11.18;10.18;;;;;;;8.01;85.36;100937.75;3610425;39;20456;-66
2023/04/02 01:27:42;;;;;;;11.38;10.27;;;;;;;7.55;84.94;100859.75;3610955;39;20062;-66
2023/04/02 01:30:11;;;;;;;10.85;9.85;;;;;;;7.95;84.64;100935.38;3607560;39;20057;-67
2023/04/02 01:32:39;;;;;;;9.68;8.68;;;;;;;7.95;84.78;100946.09;3608438;39;20212;-66
2023/04/02 01:35:08;;;;;;;9.15;8.25;;;;;;;7.95;84.18;100940.72;3609834;39;20373;-67
2023/04/02 01:38:09;;;;;;;8.25;7.40;;;;;;;7.93;83.01;100947.09;3606273;39;20071;-67
2023/04/02 01:40:57;;;;;;;8.45;7.72;;;;;;;7.94;82.97;100954.22;3581356;39;20516;-66
2023/04/02 01:43:31;;;;;;;8.50;7.70;;;;;;;7.94;83.02;100960.41;3610077;39;20061;-67
2023/04/02 01:46:03;;;;;;;10.02;8.65;;;;;;;7.78;83.55;100940.69;3610188;39;20393;-67
2023/04/02 01:48:30;;;;;;;11.10;10.00;;;;;;;7.91;83.46;100971.28;3609488;39;20132;-68
2023/04/02 01:51:02;;;;;;;11.10;10.10;;;;;;;7.49;84.28;100910.00;3610298;39;20066;-68
2023/04/02 01:53:30;;;;;;;11.32;10.23;;;;;;;7.88;84.01;100982.13;3609160;39;20055;-68
2023/04/02 01:56:00;;;;;;;12.10;10.90;;;;;;;7.81;83.73;100986.91;3610020;39;20124;-68
2023/04/02 01:58:32;;;;;;;12.05;10.05;;;;;;;7.74;83.53;100996.19;3611679;39;20053;-68
2023/04/02 02:01:04;;;;;;;11.40;10.15;;;;;;;7.72;82.83;100994.50;3610481;39;20305;-68
2023/04/02 02:03:32;;;;;;;10.77;9.70;;;;;;;7.71;83.48;100998.09;3609061;39;20055;-68
2023/04/02 02:06:01;;;;;;;9.57;8.55;;;;;;;7.56;83.08;100991.69;3611586;39;20051;-69
2023/04/02 02:08:50;;;;;;;9.32;8.43;;;;;;;7.61;82.88;101006.59;3608996;39;20107;-69
2023/04/02 02:11:25;;;;;;;7.78;7.03;;;;;;;7.62;82.63;101016.34;3610437;39;20122;-69
2023/04/02 02:14:11;;;;;;;8.85;7.95;;;;;;;7.61;82.65;101014.63;3611882;39;20055;-69
2023/04/02 02:16:40;;;;;;;8.60;7.80;;;;;;;7.50;82.81;100998.19;3609855;39;20067;-70
2023/04/02 02:19:27;;;;;;;8.60;7.63;;;;;;;7.55;82.04;101017.56;3609127;39;20081;-69
2023/04/02 02:22:04;;;;;;;7.82;7.03;;;;;;;7.40;81.90;101012.94;3610163;39;20063;-69
2023/04/02 02:24:35;;;;;;;8.18;6.57;;;;;;;7.19;81.46;100985.34;3610768;39;20421;-70
2023/04/02 02:27:06;;;;;;;7.20;6.53;;;;;;;7.49;81.81;101044.59;3608604;39;20051;-70
2023/04/02 02:29:39;;;;;;;7.20;6.50;;;;;;;7.41;82.29;101036.91;3608540;39;20051;-70
2023/04/02 02:32:10;;;;;;;;;;;;;;;7.45;81.71;101051.00;3612171;39;20043;-69
2023/04/02 02:34:47;;;;;;;6.82;6.10;;;;;;;7.41;81.96;101060.13;3611845;39;20184;-68
2023/04/02 02:37:33;;;;;;;7.07;6.32;;;;;;;7.17;82.43;101014.84;3610577;39;20699;-70
2023/04/02 02:40:10;;;;;;;6.22;5.65;;;;;;;7.42;81.70;101069.88;3610829;39;20060;-71
2023/04/02 02:42:46;;;;;;;5.50;5.00;;;;;;;7.40;81.62;101077.09;3610109;39;20058;-70
2023/04/02 02:45:25;;;;;;;6.20;5.35;;;;;;;7.31;80.86;101077.50;3599858;39;20042;-71
2023/04/02 02:47:54;;;;;;;5.40;4.85;;;;;;;7.33;80.43;101086.34;3609336;39;20056;-70
2023/04/02 02:50:26;;;;;;;6.70;5.05;;;;;;;7.16;80.83;101066.53;3608193;39;20059;-70
2023/04/02 02:52:57;;;;;;;5.63;5.13;;;;;;;7.30;81.03;101091.84;3607708;39;20074;-70
2023/04/02 02:55:35;;;;;;;5.60;5.10;;;;;;;7.20;80.72;101081.53;3608708;39;20062;-70
2023/04/02 02:58:18;;;;;;;5.03;4.53;;;;;;;7.31;80.58;101101.59;3614610;39;20098;-70
2023/04/02 03:00:45;;;;;;;5.30;4.90;;;;;;;6.97;80.47;101047.75;3610398;39;20051;-70
2023/04/02 03:03:26;;;;;;;7.22;5.63;;;;;;;7.19;81.18;101095.81;3608720;39;20062;-70
2023/04/02 03:06:01;;;;;;;6.53;5.93;;;;;;;7.32;80.85;101114.88;3609189;39;20061;-70
2023/04/02 03:08:43;;;;;;;6.68;5.97;;;;;;;7.23;80.55;101107.28;3610745;39;20070;-70
2023/04/02 03:11:32;;;;;;;6.75;6.05;;;;;;;7.34;81.69;101125.50;3609111;39;20051;-70
2023/04/02 03:14:17;;;;;;;7.38;6.68;;;;;;;7.30;80.57;101121.25;3609595;39;20163;-70
2023/04/02 03:16:57;;;;;;;7.95;7.22;;;;;;;7.30;80.70;101137.28;3608437;39;20059;-71
2023/04/02 03:19:41;;;;;;;8.00;7.20;;;;;;;7.25;80.68;101144.63;3610123;39;20127;-70
2023/04/02 03:22:25;;;;;;;8.23;7.43;;;;;;;7.26;80.41;101143.69;3607293;39;20054;-70
2023/04/02 03:25:09;;;;;;;9.13;8.23;;;;;;;7.24;81.25;101162.47;3612805;39;20131;-71
2023/04/02 03:27:45;;;;;;;9.95;8.52;;;;;;;7.22;80.84;101159.00;3607370;39;21168;-70
2023/04/02 03:30:43;;;;;;;8.90;8.00;;;;;;;7.16;81.15;101170.81;3607804;39;20050;-69
2023/04/02 03:33:18;;;;;;;12.20;8.65;;;;;;;7.17;81.16;101175.25;3611318;39;20047;-69
2023/04/02 03:35:55;;;;;;;9.70;8.70;;;;;;;7.15;80.62;101179.78;3609513;39;20051;-69
2023/04/02 03:38:32;;;;;;;8.45;7.45;;;;;;;7.11;80.89;101179.97;3600717;39;20086;-69
2023/04/02 03:41:25;;;;;;;8.68;7.70;;;;;;;7.11;80.68;101188.00;3609491;39;20058;-69
2023/04/02 03:43:59;;;;;;;8.65;7.72;;;;;;;7.08;80.72;101194.34;3608396;39;20040;-69
2023/04/02 03:46:41;;;;;;;8.98;7.95;;;;;;;7.11;80.91;101199.56;3607492;39;20051;-68
2023/04/02 03:49:22;;;;;;;9.55;7.82;;;;;;;7.12;81.03;101211.13;3607707;39;20090;-69
2023/04/02 03:52:04;;;;;;;8.50;7.68;;;;;;;7.13;81.30;101213.72;3606472;39;20047;-69
2023/04/02 03:54:31;;;;;;;9.13;8.13;;;;;;;7.12;80.68;101216.47;3606341;39;20066;-69
2023/04/02 03:56:58;;;;;;;8.75;7.80;;;;;;;7.09;80.67;101220.13;3609359;39;20059;-68
2023/04/02 03:59:36;;;;;;;9.45;8.32;;;;;;;7.06;80.30;101233.63;3611278;39;20087;-69
2023/04/02 04:02:51;;;;;;;10.63;7.70;;;;;;;7.06;80.33;101235.41;3610232;39;20063;-69
2023/04/02 04:05:30;;;;;;;;;;;;;;;6.99;80.25;101237.47;3600587;39;20267;-68
2023/04/02 04:08:14;;;;;;;8.63;6.55;;;;;;;6.77;80.41;101212.53;3607251;39;19938;-68
2023/04/02 04:10:42;;;;;;;9.90;7.22;;;;;;;6.94;80.25;101247.47;3609227;39;20051;-68
2023/04/02 04:13:27;;;;;;;10.63;8.23;;;;;;;6.79;80.01;101234.72;3609697;39;20054;-68
2023/04/02 04:16:08;;;;;;;8.55;7.68;;;;;;;6.88;80.14;101255.72;3605012;39;20324;-68
2023/04/02 04:18:56;;;;;;;10.85;7.68;;;;;;;6.89;80.13;101268.19;3607834;39;21317;-68
2023/04/02 04:21:30;;;;;;;9.75;8.20;;;;;;;6.79;80.12;101256.09;3611183;39;20124;-68
2023/04/02 04:24:13;;;;;;;10.20;7.57;;;;;;;6.84;80.08;101278.16;3610859;39;20280;-69
2023/04/02 04:26:56;;;;;;;9.27;8.32;;;;;;;6.86;80.18;101293.22;3607730;39;20078;-69
2023/04/02 04:29:37;;;;;;;10.90;8.80;;;;;;;6.83;79.69;101285.31;3608400;39;20061;-68
2023/04/02 04:32:57;;;;;;;10.18;8.25;;;;;;;6.84;79.47;101299.53;3608250;39;20091;-67
2023/04/02 04:35:35;;;;;;;9.27;8.15;;;;;;;6.55;79.29;101253.44;3606150;39;20066;-67
2023/04/02 04:38:15;;;;;;;11.75;8.05;;;;;;;6.62;78.88;101276.31;3608826;39;20405;-67
2023/04/02 04:40:53;;;;;;;10.80;8.45;;;;;;;6.84;79.54;101313.78;3608275;39;20070;-67
2023/04/02 04:43:44;;;;;;;9.77;8.07;;;;;;;6.80;79.71;101321.97;3607066;39;20474;-67
2023/04/02 04:46:25;;;;;;;8.73;7.75;;;;;;;6.71;79.28;101318.72;3599899;39;20289;-67
2023/04/02 04:49:16;;;;;;;9.70;7.47;;;;;;;6.79;79.36;101336.25;3608324;39;20490;-67
2023/04/02 04:51:55;;;;;;;7.65;6.68;;;;;;;6.76;78.87;101347.06;3609050;39;20107;-68
2023/04/02 04:54:26;;;;;;;7.68;6.68;;;;;;;6.71;78.63;101350.78;3607690;39;20043;-68
2023/04/02 04:57:02;;;;;;;12.52;6.30;;;;;;;6.60;78.57;101342.31;3614447;39;20098;-67
2023/04/02 05:00:10;;;;;;;8.32;6.50;;;;;;;6.60;78.17;101352.13;3609723;39;20115;-68
2023/04/02 05:03:30;;;;;;;7.53;6.03;;;;;;;6.61;78.09;101357.38;3599704;39;20059;-68
2023/04/02 05:06:18;;;;;;;7.35;5.95;;;;;;;6.53;78.02;101366.59;3579385;39;20048;-70
2023/04/02 05:08:51;;;;;;;7.30;5.78;;;;;;;6.51;78.41;101372.88;3612844;39;20072;-68
2023/04/02 05:11:32;;;;;;;8.57;6.03;;;;;;;6.51;78.43;101386.25;3608102;39;20382;-68
2023/04/02 05:14:12;;;;;;;6.75;5.63;;;;;;;6.45;78.01;101391.78;3611501;39;20131;-67
2023/04/02 05:17:34;;;;;;;6.80;5.97;;;;;;;6.39;77.92;101397.34;3606279;39;20090;-68
2023/04/02 05:20:15;;;;;;;6.18;5.57;;;;;;;6.32;78.02;101395.84;3597670;39;20044;-67
2023/04/02 05:23:11;;;;;;;8.18;5.75;;;;;;;6.28;77.24;101384.38;3605533;39;20090;-67
2023/04/02 05:26:09;;;;;;;6.90;5.97;;;;;;;6.34;77.50;101406.44;3610852;39;20108;-68
2023/04/02 05:28:53;;;;;;;7.72;5.82;;;;;;;6.31;78.21;101406.53;3599115;39;20059;-67
2023/04/02 05:31:26;;;;;;;8.63;6.85;;;;;;;6.34;78.12;101414.44;3607862;39;20055;-67
2023/04/02 05:33:55;;;;;;;7.10;5.88;;;;;;;6.37;77.14;101425.03;3610687;39;20051;-68
2023/04/02 05:36:31;;;;;;;7.75;5.82;;;;;;;6.38;77.90;101424.13;3610507;39;20392;-67
2023/04/02 05:38:58;;;;;;;7.68;5.95;;;;;;;6.36;77.51;101426.84;3609894;39;20043;-67
2023/04/02 05:41:37;;;;;;;6.97;5.32;;;;;;;6.36;77.14;101433.97;3611907;39;20055;-67
2023/04/02 05:44:07;;;;;;;7.70;5.97;;;;;;;6.36;76.70;101431.31;3608659;39;20059;-67
2023/04/02 05:46:44;;;;;;;6.68;5.80;;;;;;;6.36;77.01;101433.97;3607457;39;20051;-68
2023/04/02 05:49:27;;;;;;;8.32;6.30;;;;;;;6.35;76.52;101440.25;3609383;39;20474;-68
2023/04/02 05:52:01;;;;;;;8.95;5.72;;;;;;;6.23;76.56;101428.19;3610374;39;20086;-68
2023/04/02 05:54:45;;;;;;;;;;;;;;;6.34;76.54;101458.03;3608955;39;20086;-67
2023/04/02 05:57:21;;;;;;;10.50;6.25;;;;;;;6.20;76.69;101431.81;3607333;39;19934;-67
2023/04/02 05:59:56;;;;;;;7.38;5.72;;;;;;;6.38;76.22;101474.84;3607842;39;20454;-67
2023/04/02 06:02:40;;;;;;;7.88;6.72;;;;;;;6.38;76.34;101480.19;3598542;39;20389;-67
2023/04/02 06:05:16;;;;;;;6.72;5.97;;;;;;;6.37;76.24;101483.78;3608294;39;20312;-67
2023/04/02 06:08:07;;;;;;;9.02;6.68;;;;;;;6.29;75.99;101470.69;3610320;39;20046;-67
2023/04/02 06:10:49;;;;;;;7.63;6.72;;;;;;;6.21;76.64;101468.25;3603996;39;20059;-68
2023/04/02 06:13:18;;;;;;;10.40;7.20;;;;;;;6.35;76.93;101499.88;3605652;39;20063;-68
2023/04/02 06:15:45;;;;;;;10.35;7.75;;;;;;;6.34;77.59;101486.53;3609936;39;20374;-68
2023/04/02 06:18:22;;;;;;;10.40;7.45;;;;;;;6.40;76.80;101505.03;3610221;39;20042;-68
2023/04/02 06:20:49;;;;;;;10.93;7.65;;;;;;;6.37;75.82;101513.16;3610796;39;20051;-68
2023/04/02 06:23:35;;;;;;;8.77;7.45;;;;;;;6.01;75.84;101470.72;3610842;39;20077;-68
2023/04/02 06:26:28;;;;;;;11.40;8.45;;;;;;;6.25;75.29;101530.47;3610506;39;20067;-68
2023/04/02 06:29:18;;;;;;;13.65;8.60;;;;;;;6.20;75.14;101541.28;3610142;39;20435;-67
2023/04/02 06:31:52;;;;;;;10.98;7.18;;;;;;;6.10;75.08;101534.50;3609807;39;20062;-68
2023/04/02 06:34:23;;;;;;;10.07;7.85;;;;;;;6.11;75.59;101549.56;3611113;39;20055;-68
2023/04/02 06:36:56;;;;;;;9.93;7.00;;;;;;;6.11;75.03;101552.25;3607563;39;20094;-68
2023/04/02 06:39:25;;;;;;;9.00;7.78;;;;;;;6.08;74.92;101560.34;3610583;39;20095;-67
2023/04/02 06:42:06;;;;;;;10.48;6.90;;;;;;;6.01;74.53;101551.66;3608000;39;20437;-68
2023/04/02 06:44:36;;;;;;;10.90;6.18;;;;;;;6.05;74.33;101561.31;3608911;39;20046;-68
2023/04/02 06:47:34;;;;;;;9.48;6.28;;;;;;;6.04;75.01;101575.59;3598380;39;20051;-69
2023/04/02 06:50:30;;;;;;;8.57;6.40;;;;;;;5.99;74.63;101569.53;3610341;39;20143;-68
2023/04/02 06:53:04;;;;;;;10.15;6.03;;;;;;;5.99;74.16;101576.63;3609736;39;20055;-68
2023/04/02 06:55:59;;;;;;;8.23;5.88;;;;;;;6.06;73.58;101596.91;3608132;39;20083;-68
2023/04/02 06:58:25;;;;;;;7.40;5.78;;;;;;;5.97;73.55;101583.84;3611586;39;20064;-68
2023/04/02 07:00:51;;;;;;;6.57;5.35;;;;;;;6.00;73.18;101602.44;3609296;39;20062;-66
2023/04/02 07:03:31;;;;;;;7.90;5.18;;;;;;;6.02;73.45;101619.25;3609737;39;20401;-67
2023/04/02 07:06:01;;;;;;;9.93;5.30;;;;;;;5.99;72.52;101620.25;3609696;39;20749;-68
2023/04/02 07:08:27;;;;;;;8.95;5.40;;;;;;;6.03;73.08;101629.91;3610315;39;20063;-69
2023/04/02 07:10:54;;;;;;;6.78;5.15;;;;;;;6.00;72.84;101638.00;3610070;39;20074;-68
2023/04/02 07:13:22;;;;;;;8.20;5.53;;;;;;;6.08;73.20;101642.22;3609778;39;20055;-68
2023/04/02 07:15:53;;;;;;;5.82;4.90;;;;;;;6.10;72.60;101645.72;3608226;39;20120;-68
2023/04/02 07:18:28;;;;;;;9.30;4.72;;;;;;;6.23;72.80;101657.78;3610998;39;20401;-69
2023/04/02 07:20:56;;;;;;;11.82;6.78;;;;;;;6.30;72.37;101663.78;3611347;39;20071;-67
2023/04/02 07:23:21;;;;;;;9.45;5.50;;;;;;;6.35;72.00;101662.75;3609991;39;20292;-67
2023/04/02 07:25:50;;;;;;;7.75;4.60;;;;;;;6.33;71.43;101666.38;3608958;39;20063;-67
2023/04/02 07:28:16;;;;;;;5.38;3.53;;;;;;;6.28;70.93;101683.41;3607393;39;20055;-67
2023/04/02 07:30:43;;;;;;;5.80;4.18;;;;;;;6.17;70.55;101669.50;3608913;39;20161;-67
2023/04/02 07:33:15;;;;;;;5.00;4.03;;;;;;;6.28;71.50;101685.22;3609509;39;20132;-66
2023/04/02 07:35:42;;;;;;;4.65;3.60;;;;;;;6.23;71.16;101693.34;3608935;39;20069;-66
2023/04/02 07:38:08;;;;;;;4.55;3.45;;;;;;;6.16;70.17;101698.94;3609924;39;20102;-66
2023/04/02 07:40:34;;;;;;;4.97;3.25;;;;;;;6.19;70.68;101704.19;3610878;39;20271;-66
2023/04/02 07:43:00;;;;;;;6.47;3.78;;;;;;;6.14;70.45;101703.44;3600393;39;20212;-68
2023/04/02 07:45:26;;;;;;;6.10;3.50;;;;;;;6.11;70.01;101700.84;3608049;39;20055;-67
2023/04/02 07:47:52;;;;;;;6.28;3.17;;;;;;;6.05;69.85;101696.56;3608421;39;20330;-66
2023/04/02 07:50:18;;;;;;;4.05;3.10;;;;;;;6.06;70.02;101711.66;3610181;39;20055;-66
2023/04/02 07:52:44;;;;;;;7.15;3.13;;;;;;;6.01;69.85;101706.44;3609568;39;20063;-67
2023/04/02 07:55:14;;;;;;;9.68;3.58;;;;;;;6.04;70.54;101710.81;3606960;39;20294;-68
2023/04/02 07:57:53;;;;;;;5.50;3.00;;;;;;;5.70;69.60;101663.72;3609640;39;20286;-67
2023/04/02 08:00:19;;;;;;;6.20;3.75;;;;;;;6.03;69.83;101714.44;3609886;39;20553;-67
2023/04/02 08:02:46;;;;;;;9.45;4.13;;;;;;;6.09;70.25;101722.25;3607527;39;20082;-67
2023/04/02 08:05:12;;;;;;;7.47;3.97;;;;;;;6.08;69.22;101727.63;3609373;39;20059;-67
2023/04/02 08:07:38;;;;;;;6.80;3.30;;;;;;;6.09;68.91;101737.38;3608531;39;20429;-66
2023/04/02 08:10:05;;;;;;;4.88;2.97;;;;;;;6.06;68.76;101738.38;3607937;39;20048;-66
2023/04/02 08:12:31;;;;;;;5.95;2.85;;;;;;;5.99;68.89;101751.00;3609182;39;20144;-66
2023/04/02 08:14:56;;;;;;;5.75;3.08;;;;;;;6.03;69.06;101751.78;3607630;39;20401;-66
2023/04/02 08:17:22;;;;;;;7.85;5.28;;;;;;;6.05;69.21;101750.81;3607289;39;20432;-67
2023/04/02 08:19:48;;;;;;;6.40;3.30;;;;;;;6.05;68.54;101736.59;3607158;39;20095;-66
2023/04/02 08:22:13;;;;;;;7.65;3.05;;;;;;;6.16;69.16;101742.50;3609920;39;20043;-67
2023/04/02 08:24:39;;;;;;;4.80;2.67;;;;;;;6.26;69.34;101759.13;3610353;39;20069;-66
2023/04/02 08:27:06;;;;;;;4.90;2.45;;;;;;;6.27;68.70;101756.41;3610846;39;20051;-66
2023/04/02 08:29:32;;;;;;;6.45;2.88;;;;;;;6.31;68.43;101750.97;3610461;39;20050;-68
2023/04/02 08:31:58;;;;;;;5.75;2.65;;;;;;;6.49;67.74;101777.16;3609529;39;20329;-69
2023/04/02 08:34:24;;;;;;;4.30;2.70;;;;;;;6.38;67.28;101771.28;3607098;39;21233;-67
2023/04/02 08:36:55;;;;;;;2.58;2.25;;;;;;;6.46;67.06;101794.13;3607635;39;20289;-68
2023/04/02 08:39:21;;;;;;;5.65;2.40;;;;;;;6.47;67.36;101792.34;3607013;39;20385;-68
2023/04/02 08:42:00;;;;;;;4.70;2.60;;;;;;;6.53;67.23;101799.31;3606544;39;20520;-68
2023/04/02 08:45:11;;;;;;;5.82;2.33;;;;;;;6.53;67.22;101794.81;3610694;39;20061;-67
2023/04/02 08:47:43;;;;;;;4.15;2.25;;;;;;;6.57;67.52;101807.19;3608124;39;20400;-67
2023/04/02 08:50:29;;;;;;;7.95;2.80;;;;;;;6.61;67.25;101816.00;3607790;39;20086;-66
2023/04/02 08:52:58;;;;;;;3.25;2.33;;;;;;;6.38;67.43;101784.63;3605460;39;20067;-67
2023/04/02 08:55:41;;;;;;;5.63;2.70;;;;;;;6.68;67.65;101829.09;3610101;39;20266;-67
2023/04/02 08:58:41;;;;;;;4.97;3.35;;;;;;;6.73;66.88;101829.88;3608278;39;20316;-69
2023/04/02 09:01:14;;;;;;;4.05;2.65;;;;;;;6.75;66.07;101837.81;3599394;39;20066;-69
2023/04/02 09:03:50;;;;;;;5.40;2.30;;;;;;;6.70;66.85;101848.66;3607289;39;21591;-67
2023/04/02 09:06:21;;;;;;;3.85;2.28;;;;;;;6.68;66.62;101861.16;3609195;39;20054;-69
2023/04/02 09:08:50;;;;;;;3.38;2.28;;;;;;;6.59;66.94;101845.41;3606933;39;20069;-69
2023/04/02 09:11:35;;;;;;;3.72;2.10;;;;;;;6.62;65.92;101873.84;3607755;39;20086;-68
2023/04/02 09:14:16;;;;;;;3.95;2.00;;;;;;;6.47;65.89;101851.09;3611666;39;20087;-70
2023/04/02 09:17:00;;;;;;;3.85;2.20;;;;;;;6.63;66.82;101875.56;3609110;39;20050;-69
2023/04/02 09:19:54;;;;;;;5.35;2.35;;;;;;;6.74;66.74;101882.38;3604170;39;20086;-70
2023/04/02 09:22:28;;;;;;;;;;;;;;;6.71;65.91;101879.78;3609909;39;20047;-70
2023/04/02 09:25:05;;;;;;;3.85;2.22;;;;;;;6.76;66.14;101886.81;3608450;39;19931;-69
2023/04/02 09:27:35;;;;;;;3.72;2.28;;;;;;;6.43;66.17;101817.38;3608950;39;20093;-69
2023/04/02 09:31:00;;;;;;;5.85;2.33;;;;;;;6.84;65.44;101903.50;3610387;39;20069;-70
2023/04/02 09:33:45;;;;;;;5.05;1.95;;;;;;;6.83;65.44;101905.28;3592141;39;20135;-69
2023/04/02 09:36:32;;;;;;;3.80;2.08;;;;;;;6.73;64.87;101907.34;3601641;39;20066;-70
2023/04/02 09:39:21;;;;;;;3.70;2.05;;;;;;;6.72;66.29;101916.31;3603536;39;20058;-69
2023/04/02 09:41:48;;;;;;;3.13;1.83;;;;;;;6.71;66.11;101911.84;3593976;39;20047;-70
2023/04/02 09:44:26;;;;;;;3.75;2.30;;;;;;;6.73;66.14;101907.34;3610530;39;20047;-70
2023/04/02 09:46:58;;;;;;;7.05;2.08;;;;;;;6.78;66.19;101912.56;3601286;39;20050;-70
2023/04/02 09:49:37;;;;;;;2.95;2.05;;;;;;;6.09;66.22;101799.66;3610905;39;20227;-69
2023/04/02 09:52:28;;;;;;;4.10;2.38;;;;;;;6.91;66.20;101931.78;3609028;39;20055;-70
2023/04/02 09:55:20;;;;;;;4.25;2.10;;;;;;;6.61;66.11;101880.97;3605968;39;20370;-70
2023/04/02 09:57:48;;;;;;;3.50;1.90;;;;;;;6.92;65.24;101925.53;3608899;39;20525;-70
2023/04/02 10:00:22;;;;;;;4.60;2.33;;;;;;;7.06;66.49;101944.72;3609492;39;20334;-70
2023/04/02 10:03:30;;;;;;;4.63;2.33;;;;;;;6.99;65.33;101956.50;3608435;39;20043;-70
2023/04/02 10:06:15;;;;;;;5.28;2.30;;;;;;;7.00;66.01;101957.38;3609008;39;20074;-70
2023/04/02 10:08:44;;;;;;;3.38;1.98;;;;;;;6.95;66.00;101960.19;3607882;39;20344;-70
2023/04/02 10:11:33;;;;;;;3.22;2.28;;;;;;;6.99;66.15;101961.84;3610948;39;20048;-70
2023/04/02 10:14:20;;;;;;;4.28;2.47;;;;;;;7.06;66.93;101965.22;3610335;39;20078;-70
2023/04/02 10:16:58;;;;;;;4.50;2.17;;;;;;;6.97;65.31;101971.69;3610761;39;20055;-70
2023/04/02 10:19:39;;;;;;;9.32;4.88;;;;;;;6.85;65.18;101961.34;3608705;39;20104;-70
2023/04/02 10:22:16;;;;;;;4.70;2.50;;;;;;;6.91;66.94;101972.78;3610724;39;20105;-70
2023/04/02 10:24:42;;;;;;;4.28;2.40;;;;;;;6.21;66.73;101839.34;3610800;39;20266;-70
2023/04/02 10:27:32;;;;;;;2.95;2.20;;;;;;;7.07;66.83;101983.91;3610540;39;20091;-70
2023/04/02 10:30:57;;;;;;;3.67;2.05;;;;;;;7.05;65.04;101985.75;3609409;39;20661;-70
2023/04/02 10:33:54;;;;;;;5.10;2.38;;;;;;;7.00;65.94;101987.66;3611872;39;20059;-70
2023/04/02 10:36:49;;;;;;;3.10;2.38;;;;;;;6.97;65.13;101993.97;3593091;39;20046;-70
2023/04/02 10:39:32;;;;;;;4.60;2.25;;;;;;;6.84;65.58;101987.22;3610786;39;20124;-70
2023/04/02 10:42:32;;;;;;;2.47;2.10;;;;;;;6.81;66.30;101981.94;3603050;39;20051;-68
2023/04/02 10:45:36;;;;;;;4.13;2.10;;;;;;;7.08;65.59;102015.06;3609829;39;20140;-70
2023/04/02 10:48:34;;;;;;;2.47;2.00;;;;;;;7.11;65.79;102012.31;3600751;39;20117;-70
2023/04/02 10:51:33;;;;;;;6.55;2.47;;;;;;;6.95;65.01;101985.13;3611417;39;20064;-70
2023/04/02 10:54:26;;;;;;;3.83;2.30;;;;;;;7.17;64.57;102020.16;3610317;39;20298;-70
2023/04/02 10:57:05;;;;;;;2.58;2.03;;;;;;;7.15;64.98;102018.44;3607060;39;20077;-70
2023/04/02 10:59:42;;;;;;;6.40;2.25;;;;;;;7.14;64.78;102022.91;3609652;39;20063;-70
2023/04/02 11:02:20;;;;;;;4.47;2.10;;;;;;;7.18;65.58;102023.69;3610966;39;20058;-70
2023/04/02 11:04:47;;;;;;;3.90;2.10;;;;;;;7.13;64.86;102026.50;3609975;39;20058;-70
2023/04/02 11:07:29;;;;;;;7.30;2.15;;;;;;;6.93;64.35;102002.13;3608598;39;20062;-70
2023/04/02 11:09:59;;;;;;;3.47;1.88;;;;;;;7.17;64.78;102041.56;3608617;39;20063;-70
2023/04/02 11:12:54;;;;;;;4.18;2.35;;;;;;;7.27;64.57;102054.66;3611302;39;20070;-70
2023/04/02 11:15:21;;;;;;;4.18;2.22;;;;;;;7.30;63.12;102059.94;3610206;39;20378;-70
2023/04/02 11:17:48;;;;;;;3.85;2.15;;;;;;;7.26;63.56;102059.09;3609558;39;20434;-70
2023/04/02 11:20:48;;;;;;;3.78;2.33;;;;;;;7.33;64.41;102052.69;3609436;39;20060;-70
2023/04/02 11:23:19;;;;;;;7.35;2.20;;;;;;;7.36;64.13;102043.72;3611501;39;20303;-70
2023/04/02 11:25:47;;;;;;;3.67;2.05;;;;;;;7.60;63.14;102069.72;3609448;39;20056;-70
2023/04/02 11:28:31;;;;;;;5.78;2.13;;;;;;;7.58;63.04;102076.94;3608174;39;20470;-70
2023/04/02 11:30:57;;;;;;;4.78;2.28;;;;;;;7.68;62.91;102072.19;3608577;39;20082;-70
2023/04/02 11:33:42;;;;;;;5.43;2.63;;;;;;;7.85;63.37;102071.66;3610491;39;20332;-70
2023/04/02 11:36:54;;;;;;;4.65;2.50;;;;;;;7.96;62.84;102082.94;3608334;39;20124;-70
2023/04/02 11:39:55;;;;;;;5.82;2.45;;;;;;;7.97;62.34;102078.47;3610663;39;20203;-70
2023/04/02 11:42:32;;;;;;;4.28;2.90;;;;;;;8.04;61.81;102078.22;3600081;39;20373;-70
2023/04/02 11:45:20;;;;;;;4.78;2.17;;;;;;;8.19;62.83;102090.25;3611213;39;20070;-69
2023/04/02 11:48:02;;;;;;;3.65;2.10;;;;;;;8.39;62.19;102081.59;3608695;39;20061;-70
2023/04/02 11:50:34;;;;;;;3.03;1.85;;;;;;;8.39;61.53;102086.09;3609030;39;20098;-70
2023/04/02 11:53:16;;;;;;;3.65;1.98;;;;;;;8.32;60.53;102075.53;3608842;39;20070;-70
2023/04/02 11:56:15;;;;;;;4.03;1.65;;;;;;;8.11;60.45;102055.66;3609790;39;20054;-70
2023/04/02 11:58:57;;;;;;;2.40;2.03;;;;;;;8.35;60.90;102102.22;3607680;39;20434;-70
2023/04/02 12:01:32;;;;;;;2.33;2.00;;;;;;;8.33;60.99;102104.06;3609343;39;20055;-69
2023/04/02 12:04:20;;;;;;;5.10;2.10;;;;;;;8.33;61.26;102119.28;3606932;39;20058;-71
2023/04/02 12:07:16;;;;;;;3.28;1.80;;;;;;;8.34;61.41;102123.69;3608893;39;20081;-70
2023/04/02 12:10:02;;;;;;;4.35;1.95;;;;;;;8.22;60.71;102103.53;3608699;39;20151;-68
2023/04/02 12:12:38;;;;;;;5.68;1.88;;;;;;;8.09;60.41;102081.63;3607453;39;20059;-69
2023/04/02 12:15:38;;;;;;;3.65;2.03;;;;;;;8.22;59.42;102132.13;3610593;39;20063;-68
2023/04/02 12:18:20;;;;;;;5.07;2.38;;;;;;;8.12;60.94;102142.25;3600323;39;20047;-69
2023/04/02 12:20:54;;;;;;;5.35;2.47;;;;;;;8.06;60.80;102146.00;3608110;39;20047;-69
2023/04/02 12:23:36;;;;;;;5.38;1.95;;;;;;;8.12;61.09;102143.13;3609293;39;20337;-69
2023/04/02 12:26:22;;;;;;;8.43;4.13;;;;;;;8.07;60.99;102149.53;3607622;39;20120;-69
2023/04/02 12:28:48;;;;;;;3.47;2.00;;;;;;;8.04;60.10;102158.53;3605655;39;20102;-69
2023/04/02 12:31:19;;;;;;;5.82;2.20;;;;;;;8.05;60.47;102154.94;3608474;39;20062;-69